<?xml version="1.0" encoding="utf-8"?>
<gpx xmlns:xsi="http://www.w3.org/2001/XMLSchema-instance" xmlns:xsd="http://www.w3.org/2001/XMLSchema" version="1.1" creator="Shapelink.com" xmlns="http://www.topografix.com/GPX/1/1" xmlns:gpxtpx="http://www.garmin.com/xmlschemas/TrackPointExtension/v1">
  <metadata>
    <name>Løping 2.39 km, 2012-09-03</name>
    <desc></desc>
    <author><name>Mikael Blom</name></author> 
    <time>2012-09-03T19:50:00Z</time>
  </metadata>
  <trk>
    <name>Løping 2.39 km, 2012-09-03</name>
    <trkseg>
      <trkpt lat="59.9554267" lon="17.715154">
        <ele>47.2418</ele>
        <time>2012-09-03T19:50:00Z</time>
      </trkpt>
      <trkpt lat="59.9554671" lon="17.7153996">
        <ele>47.2418</ele>
        <time>2012-09-03T19:50:05Z</time>
      </trkpt>
      <trkpt lat="59.9554811" lon="17.7155974">
        <ele>46.2806</ele>
        <time>2012-09-03T19:50:09Z</time>
      </trkpt>
      <trkpt lat="59.9555133" lon="17.7158709">
        <ele>43.8773</ele>
        <time>2012-09-03T19:50:15Z</time>
      </trkpt>
      <trkpt lat="59.9555204" lon="17.7161177">
        <ele>44.358</ele>
        <time>2012-09-03T19:50:20Z</time>
      </trkpt>
      <trkpt lat="59.9555422" lon="17.7164017">
        <ele>45.7999</ele>
        <time>2012-09-03T19:50:26Z</time>
      </trkpt>
      <trkpt lat="59.9555551" lon="17.7165951">
        <ele>46.2806</ele>
        <time>2012-09-03T19:50:30Z</time>
      </trkpt>
      <trkpt lat="59.9555783" lon="17.7167178">
        <ele>44.358</ele>
        <time>2012-09-03T19:50:33Z</time>
      </trkpt>
      <trkpt lat="59.9556054" lon="17.7168841">
        <ele>43.3966</ele>
        <time>2012-09-03T19:50:37Z</time>
      </trkpt>
      <trkpt lat="59.9556339" lon="17.7170476">
        <ele>42.916</ele>
        <time>2012-09-03T19:50:41Z</time>
      </trkpt>
      <trkpt lat="59.955694" lon="17.7171589">
        <ele>40.5128</ele>
        <time>2012-09-03T19:50:45Z</time>
      </trkpt>
      <trkpt lat="59.9557758" lon="17.7173223">
        <ele>43.3966</ele>
        <time>2012-09-03T19:50:50Z</time>
      </trkpt>
      <trkpt lat="59.9558037" lon="17.7174203">
        <ele>44.358</ele>
        <time>2012-09-03T19:50:53Z</time>
      </trkpt>
      <trkpt lat="59.9558376" lon="17.7175508">
        <ele>43.8773</ele>
        <time>2012-09-03T19:50:58Z</time>
      </trkpt>
      <trkpt lat="59.9558535" lon="17.7175983">
        <ele>44.358</ele>
        <time>2012-09-03T19:51:00Z</time>
      </trkpt>
      <trkpt lat="59.9558899" lon="17.7177936">
        <ele>42.4354</ele>
        <time>2012-09-03T19:51:06Z</time>
      </trkpt>
      <trkpt lat="59.9559313" lon="17.7180195">
        <ele>40.0321</ele>
        <time>2012-09-03T19:51:12Z</time>
      </trkpt>
      <trkpt lat="59.9559774" lon="17.7181377">
        <ele>41.474</ele>
        <time>2012-09-03T19:51:15Z</time>
      </trkpt>
      <trkpt lat="59.9560201" lon="17.7183501">
        <ele>43.8773</ele>
        <time>2012-09-03T19:51:20Z</time>
      </trkpt>
      <trkpt lat="59.9560705" lon="17.7185293">
        <ele>45.3192</ele>
        <time>2012-09-03T19:51:25Z</time>
      </trkpt>
      <trkpt lat="59.9561173" lon="17.718736">
        <ele>48.684</ele>
        <time>2012-09-03T19:51:30Z</time>
      </trkpt>
      <trkpt lat="59.9561302" lon="17.718892">
        <ele>50.6066</ele>
        <time>2012-09-03T19:51:34Z</time>
      </trkpt>
      <trkpt lat="59.9561177" lon="17.7190388">
        <ele>52.5292</ele>
        <time>2012-09-03T19:51:38Z</time>
      </trkpt>
      <trkpt lat="59.9560415" lon="17.719265">
        <ele>53.9712</ele>
        <time>2012-09-03T19:51:45Z</time>
      </trkpt>
      <trkpt lat="59.9560363" lon="17.719281">
        <ele>53.4905</ele>
        <time>2012-09-03T19:51:46Z</time>
      </trkpt>
      <trkpt lat="59.9559573" lon="17.7193722">
        <ele>51.5679</ele>
        <time>2012-09-03T19:51:52Z</time>
      </trkpt>
      <trkpt lat="59.9558741" lon="17.7194435">
        <ele>50.126</ele>
        <time>2012-09-03T19:51:56Z</time>
      </trkpt>
      <trkpt lat="59.9557824" lon="17.719545">
        <ele>47.7225</ele>
        <time>2012-09-03T19:52:01Z</time>
      </trkpt>
      <trkpt lat="59.9557277" lon="17.7196052">
        <ele>47.2418</ele>
        <time>2012-09-03T19:52:04Z</time>
      </trkpt>
      <trkpt lat="59.9556288" lon="17.7196744">
        <ele>46.2806</ele>
        <time>2012-09-03T19:52:10Z</time>
      </trkpt>
      <trkpt lat="59.9555545" lon="17.7197281">
        <ele>45.7999</ele>
        <time>2012-09-03T19:52:14Z</time>
      </trkpt>
      <trkpt lat="59.9554599" lon="17.719827">
        <ele>45.7999</ele>
        <time>2012-09-03T19:52:19Z</time>
      </trkpt>
      <trkpt lat="59.9553537" lon="17.7199156">
        <ele>45.7999</ele>
        <time>2012-09-03T19:52:24Z</time>
      </trkpt>
      <trkpt lat="59.9552299" lon="17.7200256">
        <ele>44.358</ele>
        <time>2012-09-03T19:52:30Z</time>
      </trkpt>
      <trkpt lat="59.9551392" lon="17.7201491">
        <ele>46.2806</ele>
        <time>2012-09-03T19:52:34Z</time>
      </trkpt>
      <trkpt lat="59.9551139" lon="17.7201881">
        <ele>47.2418</ele>
        <time>2012-09-03T19:52:35Z</time>
      </trkpt>
      <trkpt lat="59.9549935" lon="17.7203154">
        <ele>47.2418</ele>
        <time>2012-09-03T19:52:40Z</time>
      </trkpt>
      <trkpt lat="59.9548836" lon="17.7204237">
        <ele>45.3192</ele>
        <time>2012-09-03T19:52:45Z</time>
      </trkpt>
      <trkpt lat="59.9548055" lon="17.7206454">
        <ele>41.9547</ele>
        <time>2012-09-03T19:52:50Z</time>
      </trkpt>
      <trkpt lat="59.9547441" lon="17.7208664">
        <ele>43.3966</ele>
        <time>2012-09-03T19:52:54Z</time>
      </trkpt>
      <trkpt lat="59.9547533" lon="17.7210991">
        <ele>42.4354</ele>
        <time>2012-09-03T19:52:59Z</time>
      </trkpt>
      <trkpt lat="59.9548409" lon="17.7212254">
        <ele>39.5513</ele>
        <time>2012-09-03T19:53:05Z</time>
      </trkpt>
      <trkpt lat="59.9549683" lon="17.7213053">
        <ele>37.6287</ele>
        <time>2012-09-03T19:53:11Z</time>
      </trkpt>
      <trkpt lat="59.9550687" lon="17.7213248">
        <ele>39.0707</ele>
        <time>2012-09-03T19:53:15Z</time>
      </trkpt>
      <trkpt lat="59.9551023" lon="17.7213238">
        <ele>40.9934</ele>
        <time>2012-09-03T19:53:16Z</time>
      </trkpt>
      <trkpt lat="59.955281" lon="17.7213628">
        <ele>50.126</ele>
        <time>2012-09-03T19:53:22Z</time>
      </trkpt>
      <trkpt lat="59.955467" lon="17.7213491">
        <ele>49.1646</ele>
        <time>2012-09-03T19:53:28Z</time>
      </trkpt>
      <trkpt lat="59.9556105" lon="17.7213212">
        <ele>53.0098</ele>
        <time>2012-09-03T19:53:34Z</time>
      </trkpt>
      <trkpt lat="59.9557561" lon="17.7212394">
        <ele>52.0486</ele>
        <time>2012-09-03T19:53:40Z</time>
      </trkpt>
      <trkpt lat="59.9558276" lon="17.7212434">
        <ele>49.6453</ele>
        <time>2012-09-03T19:53:44Z</time>
      </trkpt>
      <trkpt lat="59.9558478" lon="17.7212497">
        <ele>49.1646</ele>
        <time>2012-09-03T19:53:45Z</time>
      </trkpt>
      <trkpt lat="59.9558981" lon="17.7213172">
        <ele>46.7612</ele>
        <time>2012-09-03T19:53:48Z</time>
      </trkpt>
      <trkpt lat="59.9559171" lon="17.7215844">
        <ele>45.3192</ele>
        <time>2012-09-03T19:53:54Z</time>
      </trkpt>
      <trkpt lat="59.9558923" lon="17.7217917">
        <ele>46.2806</ele>
        <time>2012-09-03T19:53:59Z</time>
      </trkpt>
      <trkpt lat="59.9558883" lon="17.7220104">
        <ele>48.684</ele>
        <time>2012-09-03T19:54:04Z</time>
      </trkpt>
      <trkpt lat="59.9559065" lon="17.7223012">
        <ele>49.6453</ele>
        <time>2012-09-03T19:54:10Z</time>
      </trkpt>
      <trkpt lat="59.9559515" lon="17.7224922">
        <ele>49.1646</ele>
        <time>2012-09-03T19:54:14Z</time>
      </trkpt>
      <trkpt lat="59.9559824" lon="17.7226849">
        <ele>49.1646</ele>
        <time>2012-09-03T19:54:18Z</time>
      </trkpt>
      <trkpt lat="59.9560215" lon="17.7229355">
        <ele>49.6453</ele>
        <time>2012-09-03T19:54:23Z</time>
      </trkpt>
      <trkpt lat="59.9560022" lon="17.723213">
        <ele>48.2034</ele>
        <time>2012-09-03T19:54:28Z</time>
      </trkpt>
      <trkpt lat="59.9559909" lon="17.7233034">
        <ele>48.2034</ele>
        <time>2012-09-03T19:54:30Z</time>
      </trkpt>
      <trkpt lat="59.9559424" lon="17.7234921">
        <ele>48.684</ele>
        <time>2012-09-03T19:54:35Z</time>
      </trkpt>
      <trkpt lat="59.9558779" lon="17.7236727">
        <ele>46.2806</ele>
        <time>2012-09-03T19:54:40Z</time>
      </trkpt>
      <trkpt lat="59.9557931" lon="17.7236551">
        <ele>45.7999</ele>
        <time>2012-09-03T19:54:44Z</time>
      </trkpt>
      <trkpt lat="59.9556681" lon="17.7235266">
        <ele>45.7999</ele>
        <time>2012-09-03T19:54:50Z</time>
      </trkpt>
      <trkpt lat="59.9556263" lon="17.7234684">
        <ele>45.7999</ele>
        <time>2012-09-03T19:54:52Z</time>
      </trkpt>
      <trkpt lat="59.9555058" lon="17.7234538">
        <ele>45.3192</ele>
        <time>2012-09-03T19:54:57Z</time>
      </trkpt>
      <trkpt lat="59.9554272" lon="17.7234416">
        <ele>45.7999</ele>
        <time>2012-09-03T19:55:00Z</time>
      </trkpt>
      <trkpt lat="59.9553431" lon="17.7234307">
        <ele>45.3192</ele>
        <time>2012-09-03T19:55:04Z</time>
      </trkpt>
      <trkpt lat="59.9552996" lon="17.7234747">
        <ele>45.7999</ele>
        <time>2012-09-03T19:55:06Z</time>
      </trkpt>
      <trkpt lat="59.9551712" lon="17.7235321">
        <ele>43.8773</ele>
        <time>2012-09-03T19:55:12Z</time>
      </trkpt>
      <trkpt lat="59.9550528" lon="17.7235829">
        <ele>41.9547</ele>
        <time>2012-09-03T19:55:17Z</time>
      </trkpt>
      <trkpt lat="59.9550299" lon="17.7236057">
        <ele>41.474</ele>
        <time>2012-09-03T19:55:18Z</time>
      </trkpt>
      <trkpt lat="59.9549398" lon="17.7235638">
        <ele>38.1094</ele>
        <time>2012-09-03T19:55:23Z</time>
      </trkpt>
      <trkpt lat="59.9549073" lon="17.7234901">
        <ele>37.6287</ele>
        <time>2012-09-03T19:55:25Z</time>
      </trkpt>
      <trkpt lat="59.9547923" lon="17.723379">
        <ele>36.6675</ele>
        <time>2012-09-03T19:55:31Z</time>
      </trkpt>
      <trkpt lat="59.9546808" lon="17.7232919">
        <ele>35.7061</ele>
        <time>2012-09-03T19:55:36Z</time>
      </trkpt>
      <trkpt lat="59.9545576" lon="17.7231944">
        <ele>34.2642</ele>
        <time>2012-09-03T19:55:42Z</time>
      </trkpt>
      <trkpt lat="59.9544126" lon="17.7232103">
        <ele>39.0707</ele>
        <time>2012-09-03T19:55:47Z</time>
      </trkpt>
      <trkpt lat="59.9543016" lon="17.7232329">
        <ele>37.1481</ele>
        <time>2012-09-03T19:55:52Z</time>
      </trkpt>
      <trkpt lat="59.9541756" lon="17.7232463">
        <ele>35.7061</ele>
        <time>2012-09-03T19:55:57Z</time>
      </trkpt>
      <trkpt lat="59.9540849" lon="17.7232752">
        <ele>34.2642</ele>
        <time>2012-09-03T19:56:01Z</time>
      </trkpt>
      <trkpt lat="59.9539866" lon="17.7233323">
        <ele>32.8223</ele>
        <time>2012-09-03T19:56:06Z</time>
      </trkpt>
      <trkpt lat="59.9539051" lon="17.7234572">
        <ele>29.4575</ele>
        <time>2012-09-03T19:56:11Z</time>
      </trkpt>
      <trkpt lat="59.9538395" lon="17.7235095">
        <ele>28.9769</ele>
        <time>2012-09-03T19:56:14Z</time>
      </trkpt>
      <trkpt lat="59.9536987" lon="17.7237591">
        <ele>28.9769</ele>
        <time>2012-09-03T19:56:20Z</time>
      </trkpt>
      <trkpt lat="59.9535686" lon="17.7240596">
        <ele>35.2255</ele>
        <time>2012-09-03T19:56:26Z</time>
      </trkpt>
      <trkpt lat="59.9534539" lon="17.7242194">
        <ele>38.1094</ele>
        <time>2012-09-03T19:56:31Z</time>
      </trkpt>
      <trkpt lat="59.9533669" lon="17.7243536">
        <ele>37.6287</ele>
        <time>2012-09-03T19:56:36Z</time>
      </trkpt>
      <trkpt lat="59.9532842" lon="17.7244776">
        <ele>38.5901</ele>
        <time>2012-09-03T19:56:41Z</time>
      </trkpt>
      <trkpt lat="59.9531864" lon="17.7246277">
        <ele>39.0707</ele>
        <time>2012-09-03T19:56:47Z</time>
      </trkpt>
      <trkpt lat="59.9531162" lon="17.724717">
        <ele>38.5901</ele>
        <time>2012-09-03T19:56:51Z</time>
      </trkpt>
      <trkpt lat="59.9530286" lon="17.7249536">
        <ele>38.1094</ele>
        <time>2012-09-03T19:56:56Z</time>
      </trkpt>
      <trkpt lat="59.9529558" lon="17.7251101">
        <ele>37.1481</ele>
        <time>2012-09-03T19:57:00Z</time>
      </trkpt>
      <trkpt lat="59.9528546" lon="17.7253167">
        <ele>36.6675</ele>
        <time>2012-09-03T19:57:05Z</time>
      </trkpt>
      <trkpt lat="59.9527376" lon="17.7255266">
        <ele>36.6675</ele>
        <time>2012-09-03T19:57:11Z</time>
      </trkpt>
      <trkpt lat="59.9527212" lon="17.7255581">
        <ele>37.1481</ele>
        <time>2012-09-03T19:57:12Z</time>
      </trkpt>
      <trkpt lat="59.9526467" lon="17.7256902">
        <ele>39.5513</ele>
        <time>2012-09-03T19:57:17Z</time>
      </trkpt>
      <trkpt lat="59.9525961" lon="17.7257695">
        <ele>41.474</ele>
        <time>2012-09-03T19:57:20Z</time>
      </trkpt>
      <trkpt lat="59.9524624" lon="17.7259419">
        <ele>43.3966</ele>
        <time>2012-09-03T19:57:26Z</time>
      </trkpt>
      <trkpt lat="59.9523859" lon="17.7261262">
        <ele>44.358</ele>
        <time>2012-09-03T19:57:31Z</time>
      </trkpt>
      <trkpt lat="59.9523248" lon="17.7262555">
        <ele>44.8386</ele>
        <time>2012-09-03T19:57:35Z</time>
      </trkpt>
      <trkpt lat="59.9522485" lon="17.7264139">
        <ele>44.358</ele>
        <time>2012-09-03T19:57:40Z</time>
      </trkpt>
      <trkpt lat="59.9522176" lon="17.7264858">
        <ele>44.8386</ele>
        <time>2012-09-03T19:57:42Z</time>
      </trkpt>
      <trkpt lat="59.952172" lon="17.7266357">
        <ele>46.2806</ele>
        <time>2012-09-03T19:57:46Z</time>
      </trkpt>
      <trkpt lat="59.9520972" lon="17.7268988">
        <ele>47.2418</ele>
        <time>2012-09-03T19:57:52Z</time>
      </trkpt>
      <trkpt lat="59.9520568" lon="17.7271381">
        <ele>49.6453</ele>
        <time>2012-09-03T19:57:57Z</time>
      </trkpt>
      <trkpt lat="59.9520335" lon="17.7272498">
        <ele>49.1646</ele>
        <time>2012-09-03T19:57:59Z</time>
      </trkpt>
      <trkpt lat="59.9519988" lon="17.7274877">
        <ele>49.6453</ele>
        <time>2012-09-03T19:58:05Z</time>
      </trkpt>
      <trkpt lat="59.9519722" lon="17.7277343">
        <ele>48.684</ele>
        <time>2012-09-03T19:58:10Z</time>
      </trkpt>
      <trkpt lat="59.9519046" lon="17.7279229">
        <ele>48.684</ele>
        <time>2012-09-03T19:58:15Z</time>
      </trkpt>
      <trkpt lat="59.9517913" lon="17.7279581">
        <ele>47.7225</ele>
        <time>2012-09-03T19:58:19Z</time>
      </trkpt>
      <trkpt lat="59.9517592" lon="17.7279512">
        <ele>47.7225</ele>
        <time>2012-09-03T19:58:20Z</time>
      </trkpt>
      <trkpt lat="59.9516095" lon="17.7278817">
        <ele>47.7225</ele>
        <time>2012-09-03T19:58:26Z</time>
      </trkpt>
      <trkpt lat="59.9515313" lon="17.7277308">
        <ele>49.1646</ele>
        <time>2012-09-03T19:58:30Z</time>
      </trkpt>
      <trkpt lat="59.9514893" lon="17.7275623">
        <ele>49.6453</ele>
        <time>2012-09-03T19:58:34Z</time>
      </trkpt>
      <trkpt lat="59.9514619" lon="17.7273095">
        <ele>50.6066</ele>
        <time>2012-09-03T19:58:39Z</time>
      </trkpt>
      <trkpt lat="59.9514845" lon="17.7272141">
        <ele>50.6066</ele>
        <time>2012-09-03T19:58:41Z</time>
      </trkpt>
      <trkpt lat="59.9514971" lon="17.7270025">
        <ele>51.0872</ele>
        <time>2012-09-03T19:58:46Z</time>
      </trkpt>
      <trkpt lat="59.9514821" lon="17.7269298">
        <ele>51.5679</ele>
        <time>2012-09-03T19:58:49Z</time>
      </trkpt>
      <trkpt lat="59.9514723" lon="17.7267579">
        <ele>52.0486</ele>
        <time>2012-09-03T19:58:53Z</time>
      </trkpt>
      <trkpt lat="59.9515055" lon="17.7265456">
        <ele>53.9712</ele>
        <time>2012-09-03T19:58:57Z</time>
      </trkpt>
      <trkpt lat="59.9515851" lon="17.7263953">
        <ele>54.9324</ele>
        <time>2012-09-03T19:59:01Z</time>
      </trkpt>
      <trkpt lat="59.9516431" lon="17.726243">
        <ele>54.4518</ele>
        <time>2012-09-03T19:59:05Z</time>
      </trkpt>
      <trkpt lat="59.9517383" lon="17.7260746">
        <ele>53.4905</ele>
        <time>2012-09-03T19:59:10Z</time>
      </trkpt>
      <trkpt lat="59.9518035" lon="17.726">
        <ele>52.0486</ele>
        <time>2012-09-03T19:59:13Z</time>
      </trkpt>
      <trkpt lat="59.9519436" lon="17.7258452">
        <ele>49.1646</ele>
        <time>2012-09-03T19:59:20Z</time>
      </trkpt>
      <trkpt lat="59.9519989" lon="17.7257544">
        <ele>47.2418</ele>
        <time>2012-09-03T19:59:23Z</time>
      </trkpt>
      <trkpt lat="59.9520949" lon="17.7256281">
        <ele>45.3192</ele>
        <time>2012-09-03T19:59:28Z</time>
      </trkpt>
      <trkpt lat="59.9521467" lon="17.7255457">
        <ele>44.8386</ele>
        <time>2012-09-03T19:59:31Z</time>
      </trkpt>
      <trkpt lat="59.9521632" lon="17.7255202">
        <ele>44.358</ele>
        <time>2012-09-03T19:59:32Z</time>
      </trkpt>
      <trkpt lat="59.9522057" lon="17.7254251">
        <ele>43.3966</ele>
        <time>2012-09-03T19:59:35Z</time>
      </trkpt>
      <trkpt lat="59.9522828" lon="17.7252407">
        <ele>40.9934</ele>
        <time>2012-09-03T19:59:40Z</time>
      </trkpt>
      <trkpt lat="59.9523455" lon="17.7250821">
        <ele>38.5901</ele>
        <time>2012-09-03T19:59:44Z</time>
      </trkpt>
      <trkpt lat="59.9524102" lon="17.7250026">
        <ele>39.5513</ele>
        <time>2012-09-03T19:59:48Z</time>
      </trkpt>
      <trkpt lat="59.9525234" lon="17.724809">
        <ele>40.9934</ele>
        <time>2012-09-03T19:59:54Z</time>
      </trkpt>
      <trkpt lat="59.9526207" lon="17.7246345">
        <ele>40.9934</ele>
        <time>2012-09-03T19:59:59Z</time>
      </trkpt>
      <trkpt lat="59.9526992" lon="17.7244696">
        <ele>40.9934</ele>
        <time>2012-09-03T20:00:04Z</time>
      </trkpt>
      <trkpt lat="59.9527315" lon="17.7242723">
        <ele>39.0707</ele>
        <time>2012-09-03T20:00:08Z</time>
      </trkpt>
      <trkpt lat="59.9527751" lon="17.7240384">
        <ele>36.1868</ele>
        <time>2012-09-03T20:00:13Z</time>
      </trkpt>
      <trkpt lat="59.9527838" lon="17.7239409">
        <ele>35.7061</ele>
        <time>2012-09-03T20:00:15Z</time>
      </trkpt>
      <trkpt lat="59.9527382" lon="17.7236793">
        <ele>30.8995</ele>
        <time>2012-09-03T20:00:20Z</time>
      </trkpt>
      <trkpt lat="59.9526698" lon="17.7234026">
        <ele>28.9769</ele>
        <time>2012-09-03T20:00:26Z</time>
      </trkpt>
      <trkpt lat="59.9526298" lon="17.7232949">
        <ele>28.4962</ele>
        <time>2012-09-03T20:00:29Z</time>
      </trkpt>
      <trkpt lat="59.9525993" lon="17.72301">
        <ele>30.8995</ele>
        <time>2012-09-03T20:00:36Z</time>
      </trkpt>
      <trkpt lat="59.9525871" lon="17.722754">
        <ele>32.3416</ele>
        <time>2012-09-03T20:00:41Z</time>
      </trkpt>
      <trkpt lat="59.9525821" lon="17.7226525">
        <ele>33.7834</ele>
        <time>2012-09-03T20:00:43Z</time>
      </trkpt>
      <trkpt lat="59.9525557" lon="17.7224729">
        <ele>35.2255</ele>
        <time>2012-09-03T20:00:48Z</time>
      </trkpt>
      <trkpt lat="59.9526056" lon="17.7221709">
        <ele>35.7061</ele>
        <time>2012-09-03T20:00:54Z</time>
      </trkpt>
      <trkpt lat="59.952616" lon="17.7219455">
        <ele>35.7061</ele>
        <time>2012-09-03T20:00:58Z</time>
      </trkpt>
      <trkpt lat="59.952615" lon="17.7218249">
        <ele>36.6675</ele>
        <time>2012-09-03T20:01:00Z</time>
      </trkpt>
      <trkpt lat="59.9525782" lon="17.7216092">
        <ele>37.1481</ele>
        <time>2012-09-03T20:01:04Z</time>
      </trkpt>
      <trkpt lat="59.9525698" lon="17.721385">
        <ele>38.5901</ele>
        <time>2012-09-03T20:01:09Z</time>
      </trkpt>
      <trkpt lat="59.9525912" lon="17.7211238">
        <ele>39.0707</ele>
        <time>2012-09-03T20:01:15Z</time>
      </trkpt>
      <trkpt lat="59.9525853" lon="17.7209163">
        <ele>38.5901</ele>
        <time>2012-09-03T20:01:20Z</time>
      </trkpt>
      <trkpt lat="59.9525839" lon="17.7206654">
        <ele>36.6675</ele>
        <time>2012-09-03T20:01:25Z</time>
      </trkpt>
      <trkpt lat="59.9525982" lon="17.7205117">
        <ele>36.1868</ele>
        <time>2012-09-03T20:01:29Z</time>
      </trkpt>
      <trkpt lat="59.9526087" lon="17.7204076">
        <ele>36.1868</ele>
        <time>2012-09-03T20:01:32Z</time>
      </trkpt>
      <trkpt lat="59.9526041" lon="17.7202007">
        <ele>34.7449</ele>
        <time>2012-09-03T20:01:37Z</time>
      </trkpt>
      <trkpt lat="59.9525958" lon="17.7201046">
        <ele>34.2642</ele>
        <time>2012-09-03T20:01:39Z</time>
      </trkpt>
      <trkpt lat="59.9525262" lon="17.7198869">
        <ele>31.8607</ele>
        <time>2012-09-03T20:01:44Z</time>
      </trkpt>
      <trkpt lat="59.952469" lon="17.7196211">
        <ele>33.3029</ele>
        <time>2012-09-03T20:01:49Z</time>
      </trkpt>
      <trkpt lat="59.9524568" lon="17.7195016">
        <ele>33.3029</ele>
        <time>2012-09-03T20:01:51Z</time>
      </trkpt>
      <trkpt lat="59.9524771" lon="17.7192322">
        <ele>32.8223</ele>
        <time>2012-09-03T20:01:56Z</time>
      </trkpt>
      <trkpt lat="59.952542" lon="17.7189882">
        <ele>34.7449</ele>
        <time>2012-09-03T20:02:01Z</time>
      </trkpt>
      <trkpt lat="59.9525728" lon="17.7187236">
        <ele>37.6287</ele>
        <time>2012-09-03T20:02:07Z</time>
      </trkpt>
      <trkpt lat="59.952606" lon="17.7184413">
        <ele>37.6287</ele>
        <time>2012-09-03T20:02:13Z</time>
      </trkpt>
      <trkpt lat="59.952631" lon="17.7182494">
        <ele>39.5513</ele>
        <time>2012-09-03T20:02:17Z</time>
      </trkpt>
      <trkpt lat="59.9527267" lon="17.7180455">
        <ele>41.9547</ele>
        <time>2012-09-03T20:02:23Z</time>
      </trkpt>
      <trkpt lat="59.9528109" lon="17.7178111">
        <ele>44.358</ele>
        <time>2012-09-03T20:02:29Z</time>
      </trkpt>
      <trkpt lat="59.9529074" lon="17.717535">
        <ele>46.2806</ele>
        <time>2012-09-03T20:02:36Z</time>
      </trkpt>
      <trkpt lat="59.952964" lon="17.7173145">
        <ele>47.7225</ele>
        <time>2012-09-03T20:02:40Z</time>
      </trkpt>
      <trkpt lat="59.9529711" lon="17.7172684">
        <ele>48.2034</ele>
        <time>2012-09-03T20:02:41Z</time>
      </trkpt>
      <trkpt lat="59.9529784" lon="17.7169778">
        <ele>48.2034</ele>
        <time>2012-09-03T20:02:47Z</time>
      </trkpt>
      <trkpt lat="59.9529921" lon="17.7166818">
        <ele>45.3192</ele>
        <time>2012-09-03T20:02:53Z</time>
      </trkpt>
      <trkpt lat="59.9530095" lon="17.716437">
        <ele>43.3966</ele>
        <time>2012-09-03T20:02:58Z</time>
      </trkpt>
      <trkpt lat="59.9530753" lon="17.7161837">
        <ele>43.3966</ele>
        <time>2012-09-03T20:03:04Z</time>
      </trkpt>
      <trkpt lat="59.953121" lon="17.7159575">
        <ele>44.8386</ele>
        <time>2012-09-03T20:03:09Z</time>
      </trkpt>
      <trkpt lat="59.9532168" lon="17.7157745">
        <ele>44.358</ele>
        <time>2012-09-03T20:03:14Z</time>
      </trkpt>
      <trkpt lat="59.9532537" lon="17.7157154">
        <ele>43.3966</ele>
        <time>2012-09-03T20:03:16Z</time>
      </trkpt>
      <trkpt lat="59.9533752" lon="17.7155304">
        <ele>44.358</ele>
        <time>2012-09-03T20:03:22Z</time>
      </trkpt>
      <trkpt lat="59.9534755" lon="17.7153745">
        <ele>45.3192</ele>
        <time>2012-09-03T20:03:27Z</time>
      </trkpt>
      <trkpt lat="59.9535893" lon="17.7151523">
        <ele>43.8773</ele>
        <time>2012-09-03T20:03:33Z</time>
      </trkpt>
      <trkpt lat="59.9537266" lon="17.7150011">
        <ele>43.3966</ele>
        <time>2012-09-03T20:03:39Z</time>
      </trkpt>
      <trkpt lat="59.9538635" lon="17.7149302">
        <ele>44.8386</ele>
        <time>2012-09-03T20:03:44Z</time>
      </trkpt>
      <trkpt lat="59.9539727" lon="17.7148877">
        <ele>45.3192</ele>
        <time>2012-09-03T20:03:49Z</time>
      </trkpt>
      <trkpt lat="59.954086" lon="17.7148611">
        <ele>43.3966</ele>
        <time>2012-09-03T20:03:54Z</time>
      </trkpt>
      <trkpt lat="59.9542315" lon="17.7147925">
        <ele>44.358</ele>
        <time>2012-09-03T20:04:00Z</time>
      </trkpt>
      <trkpt lat="59.9543571" lon="17.7147605">
        <ele>45.3192</ele>
        <time>2012-09-03T20:04:05Z</time>
      </trkpt>
      <trkpt lat="59.954496" lon="17.714769">
        <ele>44.8386</ele>
        <time>2012-09-03T20:04:10Z</time>
      </trkpt>
      <trkpt lat="59.9545823" lon="17.7147792">
        <ele>44.8386</ele>
        <time>2012-09-03T20:04:13Z</time>
      </trkpt>
      <trkpt lat="59.9547464" lon="17.7147824">
        <ele>44.8386</ele>
        <time>2012-09-03T20:04:18Z</time>
      </trkpt>
      <trkpt lat="59.9548533" lon="17.7147714">
        <ele>43.8773</ele>
        <time>2012-09-03T20:04:21Z</time>
      </trkpt>
      <trkpt lat="59.9549833" lon="17.7145821">
        <ele>43.8773</ele>
        <time>2012-09-03T20:04:26Z</time>
      </trkpt>
      <trkpt lat="59.9551105" lon="17.7144174">
        <ele>43.8773</ele>
        <time>2012-09-03T20:04:31Z</time>
      </trkpt>
      <trkpt lat="59.9551465" lon="17.7143899">
        <ele>44.358</ele>
        <time>2012-09-03T20:04:33Z</time>
      </trkpt>
      <trkpt lat="59.9552189" lon="17.7142035">
        <ele>43.3966</ele>
        <time>2012-09-03T20:04:38Z</time>
      </trkpt>
      <trkpt lat="59.9552659" lon="17.7142439">
        <ele>44.358</ele>
        <time>2012-09-03T20:04:40Z</time>
      </trkpt>
      <trkpt lat="59.9553167" lon="17.7144614">
        <ele>45.7999</ele>
        <time>2012-09-03T20:04:45Z</time>
      </trkpt>
      <trkpt lat="59.955345" lon="17.7147002">
        <ele>45.3192</ele>
        <time>2012-09-03T20:04:50Z</time>
      </trkpt>
      <trkpt lat="59.955381" lon="17.7149555">
        <ele>44.8386</ele>
        <time>2012-09-03T20:04:55Z</time>
      </trkpt>
      <trkpt lat="59.9554024" lon="17.7150592">
        <ele>45.3192</ele>
        <time>2012-09-03T20:04:57Z</time>
      </trkpt>
    </trkseg>
  </trk>
</gpx>